Time;durP1;ratioP1;P1;durP2;ratioP2;P2;SDS_P1;SDS_P2;PMS_P1;PMS_P2;Temp;Humidity;BMP_temperature;BMP_pressure;BME280_temperature;BME280_humidity;BME280_pressure;Samples;Min_cycle;Max_cycle;Signal;HPM_P1;HPM_P2
2023/08/02 00:01:03;;;;;;;2.03;1.90;;;21.70;75.00;22.50;99473.00;;;;6271165;22;20479;-51
2023/08/02 00:03:29;;;;;;;2.50;2.00;;;21.70;75.00;22.50;99476.00;;;;6270145;22;20248;-51
2023/08/02 00:05:56;;;;;;;2.33;2.10;;;21.70;75.00;22.50;99475.00;;;;6275266;22;20594;-51
2023/08/02 00:08:22;;;;;;;2.97;2.00;;;21.70;75.00;22.50;99474.00;;;;6274397;22;20146;-51
2023/08/02 00:10:48;;;;;;;2.53;2.00;;;21.70;75.00;22.50;99475.00;;;;6272723;22;20176;-50
2023/08/02 00:13:14;;;;;;;2.70;2.10;;;21.70;75.00;22.50;99465.00;;;;6271243;22;20149;-50
2023/08/02 00:15:40;;;;;;;2.40;2.00;;;21.70;75.00;22.50;99458.00;;;;6270585;22;20193;-51
2023/08/02 00:18:06;;;;;;;2.27;2.07;;;21.70;75.00;22.50;99455.00;;;;6270022;22;20209;-51
2023/08/02 00:20:31;;;;;;;2.33;2.00;;;21.70;75.00;22.50;99385.00;;;;6270535;22;20183;-52
2023/08/02 00:22:57;;;;;;;2.20;2.00;;;21.70;75.10;22.50;99449.00;;;;6265019;22;20492;-51
2023/08/02 00:25:24;;;;;;;2.27;2.00;;;21.60;75.00;22.40;99453.00;;;;6267606;22;20673;-51
2023/08/02 00:27:49;;;;;;;2.30;2.00;;;21.60;75.00;22.50;99454.00;;;;6269539;22;20142;-51
2023/08/02 00:30:16;;;;;;;2.27;2.07;;;21.60;75.00;22.50;99441.00;;;;6269703;22;20193;-51
2023/08/02 00:32:45;;;;;;;2.27;2.07;;;21.60;75.10;22.50;99451.00;;;;6271474;22;20566;-51
2023/08/02 00:35:11;;;;;;;2.30;2.03;;;21.60;75.00;22.50;99448.00;;;;6270305;22;20157;-51
2023/08/02 00:37:37;;;;;;;3.13;1.87;;;21.60;75.00;22.50;99450.00;;;;6271694;22;20252;-51
2023/08/02 00:40:04;;;;;;;2.27;2.07;;;21.60;75.00;22.40;99436.00;;;;6270062;22;20298;-50
2023/08/02 00:42:29;;;;;;;2.10;1.90;;;21.60;75.00;22.40;99430.00;;;;6272073;22;20149;-51
2023/08/02 00:44:55;;;;;;;2.30;2.10;;;21.60;75.00;22.40;99443.00;;;;6271785;22;20247;-51
2023/08/02 00:47:21;;;;;;;2.00;1.87;;;21.60;75.00;22.40;99384.00;;;;6270243;22;20231;-53
2023/08/02 00:49:47;;;;;;;2.50;2.30;;;21.60;75.00;22.40;99437.00;;;;6270269;22;20519;-52
2023/08/02 00:52:13;;;;;;;2.20;2.00;;;21.60;75.00;22.40;99442.00;;;;6244868;22;20141;-51
2023/08/02 00:54:39;;;;;;;1.97;1.87;;;21.60;75.00;22.40;99434.00;;;;6271948;22;20149;-51
2023/08/02 00:57:05;;;;;;;2.20;1.90;;;21.60;75.00;22.40;99424.00;;;;6271867;22;20171;-51
2023/08/02 00:59:31;;;;;;;2.30;1.93;;;21.50;75.00;22.40;99421.00;;;;6271553;22;20626;-51
2023/08/02 01:01:57;;;;;;;2.43;1.80;;;21.50;74.90;22.40;99424.00;;;;6271263;22;20475;-51
2023/08/02 01:04:22;;;;;;;2.17;1.97;;;21.50;74.90;22.40;99437.00;;;;6270114;22;20509;-52
2023/08/02 01:07:11;;;;;;;2.20;2.00;;;21.60;75.00;22.40;99421.00;;;;6269926;22;20142;-52
2023/08/02 01:09:47;;;;;;;2.20;2.00;;;21.50;74.90;22.40;99430.00;;;;6227994;22;20819;-53
2023/08/02 01:12:13;;;;;;;1.90;1.80;;;21.50;74.90;22.30;99427.00;;;;6271587;22;20422;-52
2023/08/02 01:14:47;;;;;;;2.13;1.87;;;21.50;74.90;22.30;99348.00;;;;6245196;22;20155;-51
2023/08/02 01:17:13;;;;;;;2.87;2.03;;;21.50;74.90;22.30;99412.00;;;;6271925;22;20160;-51
2023/08/02 01:19:38;;;;;;;2.30;2.10;;;21.50;75.00;22.30;99402.00;;;;6275855;22;20179;-52
2023/08/02 01:22:04;;;;;;;2.20;2.00;;;21.50;75.00;22.30;99398.00;;;;6286224;22;20165;-53
2023/08/02 01:24:36;;;;;;;2.10;1.90;;;21.50;74.90;22.30;99387.00;;;;6284676;22;20172;-51
2023/08/02 01:27:07;;;;;;;1.90;1.80;;;21.50;75.00;22.30;99396.00;;;;6271908;22;20142;-51
2023/08/02 01:29:33;;;;;;;2.00;1.90;;;21.50;75.00;22.30;99392.00;;;;6220231;22;20165;-51
2023/08/02 01:31:59;;;;;;;2.20;2.00;;;21.40;74.90;22.30;99396.00;;;;6270433;22;20226;-51
2023/08/02 01:34:24;;;;;;;2.00;1.80;;;21.40;74.90;22.30;99385.00;;;;6246461;22;20168;-52
2023/08/02 01:36:50;;;;;;;2.23;2.00;;;21.40;75.00;22.20;99384.00;;;;6278694;22;20156;-52
2023/08/02 01:39:16;;;;;;;2.30;2.10;;;21.40;75.00;22.20;99389.00;;;;6274089;22;20172;-52
2023/08/02 01:41:42;;;;;;;2.30;2.00;;;21.40;75.10;22.00;99383.00;;;;6270571;22;20561;-52
2023/08/02 01:44:08;;;;;;;2.10;1.90;;;21.40;75.00;22.20;99387.00;;;;6271574;22;20234;-53
2023/08/02 01:46:34;;;;;;;2.00;1.90;;;21.40;75.10;22.30;99385.00;;;;6271635;22;20490;-52
2023/08/02 01:49:00;;;;;;;2.23;2.00;;;21.40;75.00;22.30;99381.00;;;;6271842;22;20235;-52
2023/08/02 01:51:26;;;;;;;2.63;2.23;;;21.40;75.00;22.20;99380.00;;;;6271629;22;20251;-52
2023/08/02 01:53:52;;;;;;;2.10;1.90;;;21.40;75.00;22.20;99373.00;;;;6271655;22;20730;-52
2023/08/02 01:56:17;;;;;;;2.27;1.90;;;21.40;75.00;22.20;99359.00;;;;6271263;22;20145;-51
2023/08/02 01:58:43;;;;;;;2.20;2.00;;;21.40;75.10;22.20;99369.00;;;;6271980;22;20225;-52
2023/08/02 02:01:09;;;;;;;2.53;2.00;;;21.40;75.00;22.20;99339.00;;;;6271505;22;20172;-52
2023/08/02 02:03:34;;;;;;;2.30;2.10;;;21.40;75.10;22.20;99342.00;;;;6271470;22;20173;-51
2023/08/02 02:06:00;;;;;;;2.10;1.90;;;21.40;75.10;22.20;99343.00;;;;6270741;22;20476;-52
2023/08/02 02:08:26;;;;;;;1.90;1.80;;;21.40;75.10;22.20;99336.00;;;;6271480;22;20148;-51
2023/08/02 02:10:53;;;;;;;2.43;2.13;;;21.40;75.10;22.20;99332.00;;;;6271529;22;20165;-52
2023/08/02 02:13:20;;;;;;;2.20;2.00;;;21.40;75.10;22.20;99322.00;;;;6271641;22;20149;-52
2023/08/02 02:15:45;;;;;;;2.00;1.90;;;21.40;75.10;22.20;99326.00;;;;6271433;22;20145;-51
2023/08/02 02:18:11;;;;;;;2.03;1.83;;;21.40;75.10;22.20;99318.00;;;;6271207;22;20175;-52
2023/08/02 02:20:37;;;;;;;1.80;1.70;;;21.30;75.00;22.20;99312.00;;;;6271361;22;20176;-54
2023/08/02 02:23:02;;;;;;;2.00;1.80;;;21.40;75.10;22.20;99325.00;;;;6271295;22;20601;-52
2023/08/02 02:25:28;;;;;;;2.20;2.00;;;21.40;75.00;22.20;99317.00;;;;6271273;22;20145;-50
2023/08/02 02:27:54;;;;;;;2.00;1.90;;;21.30;75.00;22.20;99298.00;;;;6271064;22;20149;-50
2023/08/02 02:30:20;;;;;;;2.13;1.70;;;21.30;75.00;22.20;99305.00;;;;6271336;22;20169;-51
2023/08/02 02:32:45;;;;;;;2.20;2.00;;;21.40;75.00;22.20;99306.00;;;;6270991;22;20153;-51
2023/08/02 02:35:14;;;;;;;3.10;1.80;;;21.30;74.80;22.20;99288.00;;;;6270923;22;20153;-51
2023/08/02 02:37:40;;;;;;;1.93;1.83;;;21.30;74.70;22.20;99289.00;;;;6269086;22;20153;-51
2023/08/02 02:40:07;;;;;;;2.83;1.80;;;21.30;74.80;22.20;99277.00;;;;6243858;22;20169;-51
2023/08/02 02:42:33;;;;;;;1.90;1.70;;;21.30;74.80;22.20;99282.00;;;;6268496;22;20148;-52
2023/08/02 02:44:59;;;;;;;2.07;1.90;;;21.30;74.80;22.20;99270.00;;;;6271016;22;20504;-52
2023/08/02 02:47:25;;;;;;;1.90;1.80;;;21.30;75.10;22.20;99268.00;;;;6270729;22;20153;-52
2023/08/02 02:49:50;;;;;;;1.90;1.80;;;21.30;74.70;22.20;99263.00;;;;6270674;22;20509;-50
2023/08/02 02:52:16;;;;;;;2.10;1.90;;;21.30;74.70;22.20;99253.00;;;;6270855;22;20141;-51
2023/08/02 02:54:42;;;;;;;2.20;1.93;;;21.30;74.70;22.20;99256.00;;;;6271063;22;20145;-51
2023/08/02 02:57:07;;;;;;;2.00;1.90;;;21.30;74.70;22.20;99247.00;;;;6270740;22;20144;-50
2023/08/02 02:59:33;;;;;;;2.17;1.97;;;21.30;74.70;22.10;99223.00;;;;6270993;22;20252;-50
2023/08/02 03:01:59;;;;;;;1.80;1.70;;;21.30;74.80;22.10;99215.00;;;;6272015;22;20192;-50
2023/08/02 03:04:26;;;;;;;1.70;1.60;;;21.30;74.90;22.10;99222.00;;;;6272818;22;20176;-50
2023/08/02 03:06:52;;;;;;;1.73;1.63;;;21.30;74.80;22.10;99219.00;;;;6272164;22;20148;-52
2023/08/02 03:09:18;;;;;;;2.00;1.90;;;21.30;74.80;22.10;99221.00;;;;6272543;22;20141;-51
2023/08/02 03:11:44;;;;;;;2.20;1.93;;;21.30;74.70;22.10;99187.00;;;;6272730;22;20142;-52
2023/08/02 03:14:10;;;;;;;1.87;1.77;;;21.20;74.70;22.10;99203.00;;;;6271018;22;20642;-51
2023/08/02 03:16:35;;;;;;;1.80;1.70;;;21.30;74.70;22.10;99214.00;;;;6271765;22;20207;-51
2023/08/02 03:19:02;;;;;;;2.13;1.90;;;21.30;74.80;22.10;99227.00;;;;6272243;22;20211;-54
2023/08/02 03:21:27;;;;;;;2.33;2.00;;;21.30;74.70;22.10;99237.00;;;;6277740;22;20510;-52
2023/08/02 03:23:53;;;;;;;2.10;1.90;;;21.20;74.60;22.10;99218.00;;;;6276873;22;20173;-52
2023/08/02 03:26:19;;;;;;;2.27;1.80;;;21.20;74.60;22.10;99204.00;;;;6275023;22;20149;-52
2023/08/02 03:28:45;;;;;;;2.10;1.90;;;21.20;74.60;22.10;99222.00;;;;6272557;22;20145;-52
2023/08/02 03:31:10;;;;;;;3.80;1.90;;;21.20;74.70;22.10;99218.00;;;;6269980;22;20173;-52
2023/08/02 03:33:36;;;;;;;2.93;2.07;;;21.20;75.00;22.10;99219.00;;;;6271990;22;20156;-52
2023/08/02 03:36:02;;;;;;;4.50;2.40;;;21.30;74.80;22.00;99226.00;;;;6271932;22;20149;-52
2023/08/02 03:38:27;;;;;;;2.10;1.90;;;21.20;74.70;22.10;99216.00;;;;6277177;22;20145;-52
2023/08/02 03:40:53;;;;;;;3.10;1.80;;;21.20;74.70;22.00;99189.00;;;;6273333;22;20180;-52
2023/08/02 03:43:19;;;;;;;2.10;1.90;;;21.20;74.70;22.00;99198.00;;;;6272197;22;20149;-52
2023/08/02 03:45:45;;;;;;;3.00;1.90;;;21.10;75.40;22.00;99193.00;;;;6267804;22;20145;-52
2023/08/02 03:48:10;;;;;;;4.07;2.00;;;21.20;74.70;22.00;99192.00;;;;6269374;22;20157;-52
2023/08/02 03:50:36;;;;;;;1.97;1.73;;;21.20;74.70;22.00;99176.00;;;;6270984;22;20174;-52
2023/08/02 03:53:02;;;;;;;2.10;1.90;;;21.20;74.80;22.00;99170.00;;;;6271519;22;20152;-52
2023/08/02 03:55:27;;;;;;;2.00;1.80;;;21.10;74.70;21.90;99160.00;;;;6243965;22;20180;-52
2023/08/02 03:57:53;;;;;;;2.00;1.90;;;21.10;74.70;21.90;99146.00;;;;6271494;22;20149;-52
2023/08/02 04:00:19;;;;;;;2.70;1.90;;;21.10;74.70;21.90;99133.00;;;;6271252;22;20160;-52
2023/08/02 04:02:45;;;;;;;2.07;1.87;;;21.10;74.80;21.90;99132.00;;;;6218861;22;20153;-52
2023/08/02 04:05:10;;;;;;;1.93;1.83;;;21.10;74.80;21.90;99132.00;;;;6271209;22;20172;-52
2023/08/02 04:07:36;;;;;;;2.50;1.90;;;21.10;74.80;21.90;99146.00;;;;6272971;22;20145;-52
2023/08/02 04:10:02;;;;;;;2.10;1.90;;;21.00;74.60;21.80;99147.00;;;;6273414;22;20161;-52
2023/08/02 04:12:28;;;;;;;2.10;1.90;;;21.00;74.60;21.90;99148.00;;;;6272577;22;20149;-52
2023/08/02 04:14:54;;;;;;;1.77;1.67;;;21.00;74.60;21.80;99145.00;;;;6273169;22;20202;-52
2023/08/02 04:17:20;;;;;;;2.43;1.90;;;21.10;74.70;21.80;99155.00;;;;6271239;22;20173;-52
2023/08/02 04:19:46;;;;;;;2.83;2.00;;;21.00;74.60;21.80;99156.00;;;;6273277;22;20173;-50
2023/08/02 04:22:12;;;;;;;1.90;1.80;;;21.00;74.60;21.80;99086.00;;;;6273319;22;20153;-52
2023/08/02 04:24:37;;;;;;;2.10;1.90;;;21.00;74.50;21.80;99160.00;;;;6273029;22;20169;-51
2023/08/02 04:27:04;;;;;;;2.10;1.90;;;21.00;74.60;21.80;99147.00;;;;6272422;22;20160;-52
2023/08/02 04:29:29;;;;;;;1.90;1.80;;;21.00;74.60;21.80;99146.00;;;;6273039;22;20169;-53
2023/08/02 04:31:55;;;;;;;2.07;1.80;;;21.00;74.60;21.80;99149.00;;;;6272936;22;20685;-51
2023/08/02 04:34:21;;;;;;;2.93;1.90;;;21.00;74.60;21.90;99125.00;;;;6273114;22;20734;-52
2023/08/02 04:36:46;;;;;;;2.20;2.00;;;21.00;74.50;21.90;99103.00;;;;6272042;22;20149;-53
2023/08/02 04:39:13;;;;;;;2.13;1.90;;;21.00;74.60;21.70;99094.00;;;;6272919;22;20199;-52
2023/08/02 04:41:39;;;;;;;3.50;1.97;;;21.00;74.60;21.80;99083.00;;;;6273113;22;20160;-51
2023/08/02 04:44:05;;;;;;;2.10;1.90;;;21.00;74.70;21.80;99072.00;;;;6272970;22;20169;-52
2023/08/02 04:46:31;;;;;;;3.13;1.90;;;21.00;74.60;21.80;99068.00;;;;6272165;22;20168;-52
2023/08/02 04:48:56;;;;;;;4.30;2.03;;;20.90;74.60;21.80;99061.00;;;;6273120;22;20173;-52
2023/08/02 04:51:22;;;;;;;3.73;2.20;;;20.90;74.60;21.80;99047.00;;;;6272801;22;20161;-51
2023/08/02 04:53:48;;;;;;;8.13;2.43;;;21.00;74.70;21.80;99059.00;;;;6273100;22;20145;-51
2023/08/02 04:56:14;;;;;;;3.87;2.30;;;20.90;74.60;21.80;99039.00;;;;6272556;22;20227;-51
2023/08/02 04:58:41;;;;;;;8.10;2.43;;;20.90;74.60;21.80;99039.00;;;;6271400;22;20602;-51
2023/08/02 05:01:06;;;;;;;4.63;2.40;;;20.90;74.70;21.70;99024.00;;;;6272657;22;20520;-51
2023/08/02 05:03:33;;;;;;;6.57;2.63;;;20.90;74.70;21.70;98999.00;;;;6270368;22;20169;-51
2023/08/02 05:06:04;;;;;;;5.40;2.43;;;20.90;74.70;21.80;99017.00;;;;6270837;22;20145;-51
2023/08/02 05:08:31;;;;;;;4.20;2.10;;;20.90;74.70;21.70;99010.00;;;;6246181;22;20145;-52
2023/08/02 05:10:57;;;;;;;4.20;2.20;;;20.90;74.70;21.70;99013.00;;;;6271089;22;20585;-51
2023/08/02 05:13:24;;;;;;;9.80;2.53;;;20.90;74.80;21.70;99010.00;;;;6272512;22;20198;-51
2023/08/02 05:15:50;;;;;;;10.10;2.67;;;20.90;74.90;21.80;99026.00;;;;6244914;22;20141;-52
2023/08/02 05:18:16;;;;;;;3.03;2.07;;;20.90;75.60;21.80;99015.00;;;;6245624;22;20164;-50
2023/08/02 05:20:42;;;;;;;4.67;2.23;;;21.00;74.80;21.80;98995.00;;;;6273067;22;20165;-50
2023/08/02 05:23:08;;;;;;;4.83;2.27;;;21.00;74.70;21.80;98995.00;;;;6280264;22;20141;-51
2023/08/02 05:25:34;;;;;;;5.53;2.40;;;21.00;74.80;21.80;98978.00;;;;6279648;22;20593;-50
2023/08/02 05:28:00;;;;;;;3.17;2.40;;;20.90;74.80;21.80;98968.00;;;;6271861;22;20354;-50
2023/08/02 05:30:30;;;;;;;4.73;2.20;;;20.90;74.80;21.80;98968.00;;;;6271930;22;20171;-50
2023/08/02 05:32:56;;;;;;;2.97;2.40;;;20.90;74.80;21.70;98967.00;;;;6270817;22;20145;-51
2023/08/02 05:35:23;;;;;;;3.97;2.10;;;20.90;74.90;21.70;98950.00;;;;6271899;22;20484;-51
2023/08/02 05:37:49;;;;;;;5.07;2.20;;;20.90;75.00;21.70;98945.00;;;;6278991;22;20171;-52
2023/08/02 05:40:15;;;;;;;5.80;2.40;;;20.90;75.00;21.70;98931.00;;;;6276230;22;20192;-51
2023/08/02 05:42:41;;;;;;;3.87;2.30;;;20.90;75.00;21.70;98862.00;;;;6271738;22;20157;-52
2023/08/02 05:45:07;;;;;;;4.63;2.50;;;20.90;75.00;21.70;98933.00;;;;6271897;22;20173;-50
2023/08/02 05:47:33;;;;;;;4.03;2.13;;;20.90;74.90;21.70;98916.00;;;;6272152;22;20156;-51
2023/08/02 05:49:59;;;;;;;4.10;2.20;;;20.90;75.00;21.70;98918.00;;;;6271062;22;20188;-51
2023/08/02 05:52:25;;;;;;;5.00;2.40;;;20.90;74.90;21.70;98907.00;;;;6272533;22;20141;-50
2023/08/02 05:54:50;;;;;;;2.53;2.23;;;20.80;74.80;21.70;98924.00;;;;6272339;22;20270;-50
2023/08/02 05:57:16;;;;;;;2.37;2.00;;;20.80;74.90;21.70;98924.00;;;;6271994;22;20500;-50
2023/08/02 05:59:42;;;;;;;4.73;2.10;;;20.80;74.90;21.70;98909.00;;;;6272423;22;20423;-51
2023/08/02 06:02:08;;;;;;;3.40;2.17;;;20.80;74.90;21.70;98910.00;;;;6272271;22;20650;-50
2023/08/02 06:04:38;;;;;;;2.67;2.10;;;20.90;74.90;21.70;98902.00;;;;6272018;22;20188;-50
2023/08/02 06:07:04;;;;;;;2.33;2.10;;;20.80;74.90;21.70;98912.00;;;;6269958;22;20141;-50
2023/08/02 06:09:30;;;;;;;2.43;2.20;;;20.90;74.90;21.70;98909.00;;;;6272046;22;20165;-50
2023/08/02 06:11:56;;;;;;;3.20;2.20;;;20.80;74.90;21.70;98899.00;;;;6271834;22;20218;-50
2023/08/02 06:14:22;;;;;;;3.33;2.20;;;20.90;74.90;21.70;98880.00;;;;6270359;22;20149;-50
2023/08/02 06:16:47;;;;;;;2.37;2.17;;;20.80;75.70;21.70;98890.00;;;;6269642;22;20640;-50
2023/08/02 06:19:13;;;;;;;3.23;2.23;;;20.80;74.90;21.70;98885.00;;;;6272418;22;20298;-51
2023/08/02 06:21:39;;;;;;;3.07;2.10;;;20.80;74.80;21.70;98882.00;;;;6272157;22;20145;-50
2023/08/02 06:24:05;;;;;;;3.23;2.17;;;20.80;74.90;21.70;98883.00;;;;6272068;22;20169;-50
2023/08/02 06:26:31;;;;;;;3.00;2.23;;;20.80;74.90;21.70;98871.00;;;;6276310;22;20149;-50
2023/08/02 06:28:57;;;;;;;2.30;2.10;;;20.80;74.90;21.70;98867.00;;;;6278960;22;20149;-50
2023/08/02 06:31:22;;;;;;;2.90;2.20;;;20.80;74.80;21.70;98872.00;;;;6277712;22;20161;-50
2023/08/02 06:33:48;;;;;;;2.50;2.30;;;20.80;74.90;21.70;98873.00;;;;6272669;22;20145;-51
2023/08/02 06:36:14;;;;;;;2.57;2.30;;;20.80;74.90;21.60;98882.00;;;;6271470;22;20149;-51
2023/08/02 06:38:40;;;;;;;2.13;2.00;;;20.80;74.90;21.60;98869.00;;;;6270026;22;20176;-51
2023/08/02 06:41:05;;;;;;;2.40;2.20;;;20.80;75.00;21.60;98862.00;;;;6271465;22;20172;-51
2023/08/02 06:43:31;;;;;;;2.37;2.17;;;20.80;75.00;21.60;98848.00;;;;6270410;22;20207;-51
2023/08/02 06:45:57;;;;;;;3.10;2.30;;;20.80;74.90;21.60;98847.00;;;;6270237;22;20486;-51
2023/08/02 06:48:24;;;;;;;2.37;2.17;;;20.80;74.90;21.70;98847.00;;;;6271093;22;20171;-52
2023/08/02 06:50:51;;;;;;;2.77;2.20;;;20.80;74.90;21.60;98826.00;;;;6264574;22;20176;-51
2023/08/02 06:53:17;;;;;;;2.47;2.20;;;20.80;75.00;21.60;98826.00;;;;6242449;22;20149;-51
2023/08/02 06:55:42;;;;;;;2.40;2.20;;;20.80;75.00;21.60;98819.00;;;;6268777;22;20153;-51
2023/08/02 06:58:08;;;;;;;2.43;2.10;;;20.80;75.00;21.60;98812.00;;;;6270614;22;20141;-53
2023/08/02 07:00:34;;;;;;;2.40;2.20;;;20.70;74.90;21.60;98800.00;;;;6270671;22;20165;-52
2023/08/02 07:03:00;;;;;;;3.30;2.30;;;20.80;75.00;21.60;98793.00;;;;6270588;22;20172;-51
2023/08/02 07:05:30;;;;;;;2.40;2.20;;;20.70;75.00;21.70;98799.00;;;;6268500;22;20169;-51
2023/08/02 07:07:56;;;;;;;2.50;2.30;;;20.80;75.20;21.70;98780.00;;;;6270250;22;20145;-51
2023/08/02 07:10:23;;;;;;;2.47;2.27;;;20.80;75.00;21.70;98761.00;;;;6270478;22;20188;-51
2023/08/02 07:12:49;;;;;;;2.70;2.50;;;20.80;75.00;21.70;98759.00;;;;6269211;22;20145;-51
2023/08/02 07:15:16;;;;;;;2.47;2.27;;;20.80;75.00;21.70;98752.00;;;;6270445;22;20149;-52
2023/08/02 07:17:44;;;;;;;2.93;2.27;;;20.80;75.00;21.70;98740.00;;;;6270471;22;20234;-51
2023/08/02 07:20:10;;;;;;;2.60;2.40;;;20.80;75.00;21.70;98753.00;;;;6269769;22;20626;-51
2023/08/02 07:22:37;;;;;;;2.57;2.33;;;20.90;75.20;21.70;98725.00;;;;6244579;22;20232;-51
2023/08/02 07:25:03;;;;;;;2.30;2.10;;;20.80;75.00;21.70;98735.00;;;;6219699;22;20805;-51
2023/08/02 07:27:28;;;;;;;2.80;2.50;;;20.80;75.10;21.70;98717.00;;;;6270358;22;20174;-51
2023/08/02 07:29:56;;;;;;;2.50;2.30;;;20.80;75.20;21.70;98720.00;;;;6270717;22;20173;-51
2023/08/02 07:32:22;;;;;;;2.50;2.30;;;20.80;75.20;21.70;98704.00;;;;6268814;22;20493;-51
2023/08/02 07:34:48;;;;;;;2.50;2.30;;;20.80;75.20;21.70;98710.00;;;;6268231;22;20153;-51
2023/08/02 07:37:14;;;;;;;2.83;2.60;;;20.80;75.20;21.70;98700.00;;;;6271110;22;20159;-51
2023/08/02 07:39:40;;;;;;;2.43;2.23;;;20.80;75.30;21.70;98681.00;;;;6270982;22;20179;-51
2023/08/02 07:42:07;;;;;;;2.60;2.40;;;20.80;75.30;21.70;98679.00;;;;6269768;22;20149;-50
2023/08/02 07:44:33;;;;;;;3.10;2.43;;;20.80;75.30;21.70;98666.00;;;;6268647;22;20177;-52
2023/08/02 07:46:59;;;;;;;2.53;2.27;;;20.80;75.30;21.70;98667.00;;;;6268088;22;20586;-51
2023/08/02 07:49:24;;;;;;;3.00;2.70;;;20.80;75.30;21.70;98648.00;;;;6270020;22;20207;-51
2023/08/02 07:51:50;;;;;;;2.80;2.37;;;20.80;75.50;21.70;98650.00;;;;6270552;22;20232;-51
2023/08/02 07:54:16;;;;;;;3.63;2.70;;;20.80;75.60;21.70;98645.00;;;;6270683;22;20153;-53
2023/08/02 07:56:41;;;;;;;3.30;2.43;;;20.80;75.90;21.70;98635.00;;;;6269836;22;20148;-52
2023/08/02 07:59:07;;;;;;;5.33;2.47;;;20.80;76.00;21.70;98624.00;;;;6270611;22;20349;-52
2023/08/02 08:01:33;;;;;;;5.87;2.80;;;20.80;76.10;21.70;98622.00;;;;6270743;22;20526;-50
2023/08/02 08:03:59;;;;;;;4.50;2.57;;;20.80;76.40;21.70;98627.00;;;;6268932;22;20566;-50
2023/08/02 08:06:25;;;;;;;3.50;2.60;;;20.80;76.50;21.70;98610.00;;;;6269939;22;20141;-51
2023/08/02 08:08:51;;;;;;;4.03;2.70;;;20.80;76.60;21.70;98603.00;;;;6270283;22;20156;-51
2023/08/02 08:11:17;;;;;;;5.20;3.00;;;20.80;76.80;21.80;98603.00;;;;6270488;22;20226;-52
2023/08/02 08:13:42;;;;;;;4.73;2.73;;;20.80;76.90;21.80;98607.00;;;;6270330;22;20149;-51
2023/08/02 08:16:08;;;;;;;4.23;2.80;;;20.80;77.30;21.80;98608.00;;;;6269824;22;20396;-51
2023/08/02 08:18:34;;;;;;;5.70;2.27;;;20.80;77.50;21.70;98602.00;;;;6270178;22;20198;-52
2023/08/02 08:21:01;;;;;;;3.77;2.20;;;20.80;77.80;21.80;98607.00;;;;6270062;22;20165;-51
2023/08/02 08:23:27;;;;;;;4.53;2.30;;;20.90;77.80;21.80;98577.00;;;;6270588;22;20145;-51
2023/08/02 08:25:53;;;;;;;5.63;2.60;;;20.90;77.80;21.80;98620.00;;;;6268675;22;20146;-52
2023/08/02 08:28:19;;;;;;;3.90;2.40;;;20.90;77.70;21.80;98611.00;;;;6266351;22;20151;-53
2023/08/02 08:30:45;;;;;;;4.17;2.43;;;20.80;77.70;21.80;98614.00;;;;6269814;22;20165;-52
2023/08/02 08:33:11;;;;;;;3.93;2.33;;;20.80;77.80;21.70;98614.00;;;;6269043;22;20615;-52
2023/08/02 08:35:36;;;;;;;3.57;1.97;;;20.80;77.60;21.70;98612.00;;;;6269446;22;20148;-52
2023/08/02 08:38:02;;;;;;;4.50;2.30;;;20.90;77.80;21.70;98609.00;;;;6269906;22;20146;-52
2023/08/02 08:40:28;;;;;;;2.90;2.10;;;20.80;77.70;21.70;98600.00;;;;6267098;22;20172;-51
2023/08/02 08:42:55;;;;;;;4.43;2.13;;;20.80;77.60;21.70;98595.00;;;;6270232;22;20149;-51
2023/08/02 08:45:23;;;;;;;3.13;2.33;;;20.80;77.50;21.70;98597.00;;;;6268085;22;20187;-51
2023/08/02 08:47:49;;;;;;;3.17;2.50;;;20.80;77.50;21.70;98602.00;;;;6270370;22;20149;-51
2023/08/02 08:50:16;;;;;;;2.70;2.50;;;20.80;77.30;21.70;98602.00;;;;6270355;22;20236;-52
2023/08/02 08:52:46;;;;;;;3.87;2.30;;;20.80;77.40;21.70;98598.00;;;;6270588;22;20145;-50
2023/08/02 08:55:16;;;;;;;4.50;2.10;;;20.80;77.50;21.70;98573.00;;;;6270448;22;20198;-52
2023/08/02 08:57:42;;;;;;;3.57;2.50;;;20.80;78.00;21.70;98589.00;;;;6243887;22;20619;-51
2023/08/02 09:00:09;;;;;;;3.93;2.30;;;20.80;78.00;21.70;98581.00;;;;6269894;22;20169;-51
2023/08/02 09:02:37;;;;;;;2.40;2.20;;;20.80;78.00;21.70;98578.00;;;;6271661;22;20149;-51
2023/08/02 09:05:03;;;;;;;2.40;2.20;;;20.80;78.10;21.70;98567.00;;;;6269574;22;20173;-51
2023/08/02 09:07:30;;;;;;;3.47;2.17;;;20.80;78.20;21.70;98578.00;;;;6243851;22;20238;-51
2023/08/02 09:09:56;;;;;;;3.40;2.50;;;20.80;78.20;21.70;98589.00;;;;6271435;22;20266;-51
2023/08/02 09:12:25;;;;;;;5.00;2.43;;;20.90;78.00;21.70;98571.00;;;;6271342;22;20703;-51
2023/08/02 09:15:01;;;;;;;2.20;2.00;;;20.80;77.90;21.70;98567.00;;;;6270939;22;20605;-51
2023/08/02 09:17:27;;;;;;;2.30;2.10;;;20.90;78.00;21.70;98559.00;;;;6271284;22;20156;-56
2023/08/02 09:20:08;;;;;;;3.93;2.10;;;20.90;78.00;21.70;98531.00;;;;6218807;22;20172;-51
2023/08/02 09:22:33;;;;;;;2.57;2.27;;;20.80;77.80;21.70;98529.00;;;;6275810;22;20716;-51
2023/08/02 09:25:00;;;;;;;2.73;2.20;;;20.80;77.80;21.70;98512.00;;;;6270777;22;20176;-51
2023/08/02 09:27:29;;;;;;;3.07;2.30;;;20.80;77.90;21.70;98522.00;;;;6271204;22;20152;-51
2023/08/02 09:29:55;;;;;;;3.20;2.10;;;20.90;78.90;21.70;98507.00;;;;6251945;22;20191;-52
2023/08/02 09:32:22;;;;;;;3.77;2.13;;;20.90;79.30;21.70;98517.00;;;;6283411;22;20149;-51
2023/08/02 09:34:58;;;;;;;4.90;2.43;;;20.90;79.70;21.70;98497.00;;;;6277059;22;20286;-51
2023/08/02 09:37:34;;;;;;;6.07;2.57;;;21.00;80.00;21.70;98517.00;;;;6269845;22;20621;-51
2023/08/02 09:40:01;;;;;;;5.77;2.60;;;21.00;80.20;21.70;98510.00;;;;6271217;22;20177;-52
2023/08/02 09:42:27;;;;;;;4.67;2.60;;;21.00;80.20;21.70;98506.00;;;;6269972;22;20145;-51
2023/08/02 09:44:57;;;;;;;5.97;2.07;;;21.00;80.30;21.80;98495.00;;;;6271645;22;20510;-51
2023/08/02 09:47:23;;;;;;;4.77;2.60;;;21.00;80.60;21.70;98494.00;;;;6244543;22;20145;-51
2023/08/02 09:50:11;;;;;;;5.40;2.50;;;21.00;80.20;21.80;98499.00;;;;6269545;22;20234;-51
2023/08/02 09:52:38;;;;;;;5.70;2.53;;;21.00;80.30;21.70;98500.00;;;;6271879;22;20563;-51
2023/08/02 09:55:05;;;;;;;6.23;2.83;;;20.90;80.40;21.80;98492.00;;;;6271408;22;20153;-51
2023/08/02 09:57:31;;;;;;;3.80;2.40;;;21.00;80.50;21.80;98483.00;;;;6271713;22;20211;-51
2023/08/02 10:00:07;;;;;;;4.60;2.30;;;21.00;80.40;21.80;98490.00;;;;6271738;22;20181;-51
2023/08/02 10:02:35;;;;;;;5.37;2.70;;;21.00;80.60;21.80;98494.00;;;;6271865;22;20215;-51
2023/08/02 10:05:02;;;;;;;3.23;2.33;;;21.00;80.50;21.80;98493.00;;;;6272136;22;20616;-50
2023/08/02 10:07:52;;;;;;;4.93;2.57;;;21.00;80.80;21.80;98483.00;;;;6270241;22;20183;-51
2023/08/02 10:10:30;;;;;;;2.43;2.23;;;21.00;80.80;21.80;98479.00;;;;6248856;22;20558;-50
2023/08/02 10:13:01;;;;;;;4.57;2.50;;;21.10;80.80;21.80;98462.00;;;;6223151;22;20125;-51
2023/08/02 10:15:27;;;;;;;2.87;2.20;;;21.00;80.70;21.90;98474.00;;;;6221292;22;20153;-51
2023/08/02 10:17:56;;;;;;;5.73;2.30;;;21.00;80.50;21.80;98486.00;;;;6246460;22;20177;-50
2023/08/02 10:20:21;;;;;;;4.27;2.13;;;21.00;80.50;21.80;98475.00;;;;6272731;22;20521;-51
2023/08/02 10:22:47;;;;;;;3.27;2.20;;;21.00;80.50;21.80;98487.00;;;;6271294;22;20145;-51
2023/08/02 10:25:13;;;;;;;4.23;2.10;;;21.00;80.70;21.80;98477.00;;;;6245670;22;20177;-51
2023/08/02 10:27:39;;;;;;;3.23;2.27;;;20.90;80.60;21.90;98469.00;;;;6272765;22;20145;-51
2023/08/02 10:30:05;;;;;;;4.47;2.50;;;20.90;80.60;21.90;98462.00;;;;6272535;22;20172;-50
2023/08/02 10:32:31;;;;;;;4.03;2.40;;;21.00;80.40;21.90;98448.00;;;;6245464;22;20637;-50
2023/08/02 10:34:59;;;;;;;2.80;1.97;;;21.00;80.40;21.90;98439.00;;;;6272519;22;20149;-51
2023/08/02 10:37:24;;;;;;;3.63;2.10;;;21.00;80.30;21.90;98433.00;;;;6271054;22;20486;-51
2023/08/02 10:39:53;;;;;;;2.30;1.80;;;21.00;80.30;21.90;98440.00;;;;6261923;22;20172;-51
2023/08/02 10:42:25;;;;;;;2.27;2.00;;;21.00;80.30;21.90;98430.00;;;;6272313;22;20602;-51
2023/08/02 10:44:56;;;;;;;4.07;2.23;;;21.00;80.10;21.90;98427.00;;;;6271085;22;20181;-51
2023/08/02 10:47:28;;;;;;;3.47;2.10;;;21.00;80.20;21.90;98426.00;;;;6272597;22;20149;-50
2023/08/02 10:49:54;;;;;;;3.13;2.00;;;21.00;80.10;21.90;98438.00;;;;6272487;22;20165;-51
2023/08/02 10:52:30;;;;;;;2.87;2.17;;;21.00;80.20;22.00;98431.00;;;;6271082;22;20555;-51